Station info - map view · info · telemetry · weather · raw · status · beacons · messages · bulletins · browse · moving · my account
Callsign, ship name or locator: Clear       
It is possible to search using wildcards (*?) after a prefix. Example: OH*
APRS station LA8OKA-9 - show graphs
Map loading...
Comment: Martin paa tur!
Mic-E message: In service
Location: 60°01.21' N 10°54.22' E - locator JP50KA84KU - show map - static map
2.9 miles Southeast bearing 150° from Rotnes, Nittedal, Akershus county, Norway [?]
4.5 miles South bearing 164° from Åneby, Nittedal, Akershus county, Norway
9.2 miles Northeast bearing 36° from Oslo, Oslo, Oslo County, Norway
30.8 miles Northeast bearing 51° from Drammen, Drammen, Buskerud county, Norway
Last position: 2017-09-20 15:29:33 EDT (7h57m ago)
2017-09-20 21:29:33 CEST local time at Rotnes, Norway [?]
Altitude: 545 ft
Course: 127°
Speed: 14 MPH
Device: Kenwood: TM-D710 (rig)
Last path: LA8OKA-9>V0PQ21 via LD2RK*,WIDE2-2,qAR,LB5GG-1 (good)
Positions stored: 127991
Packet rate: 29 seconds between packets on average during 641 seconds.
This station is transmitting packets at a high rate, which can cause congestion in the APRS network.
Other SSIDs: LA8OKA-2 LA8OKA-4 LA8OKA-7
Stations near current position of LA8OKA-9 - show more
callsign distance last heard - EDT      callsign distance last heard - EDT
LA8OKA-4113.8 yards 154°2017-08-31 16:45:37 LA8OKA-7118.8 yards 149°2017-08-31 16:10:28
LA1FDG-7118.8 yards 149°2017-08-31 16:48:44 LA9SGA-90.7 miles 297°2017-09-01 13:11:03
LA8FTA-72.3 miles 156°2017-09-18 08:20:51 LA7DHA-12.5 miles 158°2017-09-13 12:34:01
LA7DHA2.5 miles 158°2017-09-14 10:03:00 LA7DHA-92.5 miles 158°2017-09-20 06:36:49
LA7DHA-72.9 miles 195°2017-09-03 07:03:59 LA4PGA-13.0 miles 330°2017-09-19 15:32:57
LA1GPA-83.2 miles 331°2017-09-18 11:20:28 LA8FTA3.2 miles 162°2017-09-03 12:22:26
LA9JSA-93.3 miles 167°2017-09-19 12:52:35 LA7URA-103.4 miles 166°2017-08-31 16:05:48
LA1GPA-53.5 miles 332°2017-09-03 15:30:46 LA6UMA-73.6 miles 187°2017-09-03 12:33:27
LA6UMA-93.6 miles 187°2017-09-20 11:57:34 LA6UMA C3.6 miles 186°2017-09-20 23:19:00
LA6UMA-C3.6 miles 186°2017-09-20 23:19:10 LA6UMA B3.6 miles 186°2017-09-20 23:12:51
Stations which heard LA8OKA-9 directly on radio –
callsign pkts first heard - EDT last heard longest (tx => rx) longest at - EDT
LA4O 61 2017-09-01 03:22:49 2017-09-20 15:22:25 JO59MX > JO59KX 4.8 miles 262° 2017-09-19 10:20:01
LD3DN 4 2017-09-01 11:28:40 2017-09-03 15:59:27 JO59DT > JO59BR 8.2 miles 230° 2017-09-01 11:28:40
LD3GT 45 2017-09-01 12:52:54 2017-09-03 15:04:24 JO39XJ > JO49HU 40.8 miles 38° 2017-09-03 12:05:42
LD3HV 31 2017-09-01 02:09:50 2017-09-20 15:23:24 JP50KA > JO59CN 40.9 miles 217° 2017-09-01 02:13:06
LD3BL 21 2017-09-01 12:56:57 2017-09-03 14:56:53 JO49QO > JO49ML 14.0 miles 231° 2017-09-01 12:56:57
LD4HS 4 2017-09-01 15:36:08 2017-09-01 15:56:38 JO39QO > JO39MU 22.1 miles 329° 2017-09-01 15:56:38
LD3TE 46 2017-09-01 14:23:36 2017-09-03 12:58:12 JO49HN > JO49BL 18.8 miles 259° 2017-09-01 14:23:36
LD2RK 40 2017-09-01 02:04:57 2017-09-20 15:29:33 JO59KX > JP50PF 20.8 miles 34° 2017-09-20 15:21:55
LD1BK 38 2017-09-01 02:01:27 2017-09-20 12:08:34 JO59MX > JO59GW 18.8 miles 259° 2017-09-01 03:36:11
LA1HSA-2 812 2017-09-01 02:00:26 2017-09-20 15:28:24 JO59KW > JP50MA 7.5 miles 58° 2017-09-03 16:35:37
LD3KS 57 2017-09-01 11:47:01 2017-09-03 15:53:29 JO59BR > JO49SQ 19.7 miles 255° 2017-09-01 11:47:01
LD3VM 15 2017-09-01 11:45:30 2017-09-03 15:52:26 JO59BR > JP40QA 33.6 miles 308° 2017-09-01 11:45:30
LD3GB 19 2017-09-01 12:59:58 2017-09-03 14:43:39 JO49PN > JO49LF 27.0 miles 205° 2017-09-01 12:59:58
LB1HG-10 8 2017-09-01 10:11:18 2017-09-11 14:47:01 JO59JW > JO59GQ 19.5 miles 210° 2017-09-01 10:11:18
LB5GG-1 83 2017-09-01 03:37:46 2017-09-11 14:54:11 JO59MX > JO59DU 27.9 miles 250° 2017-09-04 11:14:14
LB7PG-10 5 2017-09-01 11:09:52 2017-09-11 14:37:31 JO59GV > JO59GV 1.7 miles 73° 2017-09-03 16:15:26
LE1ADV 79 2017-09-01 10:06:18 2017-09-20 15:20:24 JO59LX > JO59IV 8.0 miles 237° 2017-09-06 10:15:53
LB6AH 1 2017-09-11 12:36:43 2017-09-11 12:36:43 JO59JW > JO59JV 3.5 miles 196° 2017-09-11 12:36:43
LA4CIA-10 17 2017-09-01 10:14:18 2017-09-11 14:48:01 JO59ET > JO59IW 13.2 miles 51° 2017-09-01 11:19:09

Only position packets which were originated by the station are shown here. The range statistics show some extra long hops, because some digipeaters do not correctly add themselves to the digipeater path. Please check the raw packets.
About this site
This page shows real-time information collected from the Automatic Position Reporting System Internet network (APRS-IS). APRS is used by amateur (ham) radio operators to transmit real-time position information, weather data, telemetry and messages over the radio. A vehicle equipped with a GPS receiver, a VHF transmitter or HF transceiver and a small computer device called a tracker transmits it's location, speed and course in a small data packet, which is then received by a nearby iGate receiving site which forwards the packet on the Internet. Systems connected to the Internet can send information on the APRS-IS without a radio transmitter, or collect and display information transmitted anywhere in the world.
FAQ · Blog · Discussion group · Linking to aprs.fi · AIS sites · Service status · Database statistics · Advertising on aprs.fi · Technical details · API · Change log · Planned changes · Credits and thanks · Terms Of Service · iPhone/iPad APRS